Cologne, Texas
Current Conditions -  °F | °C
As of 4:51 AM on Tuesday 21 Oct 2014 (Local Time) from KVCT Reporting Station
Haze Haze  
Wind Chill: 64°   Ceiling: Unl
Heat Index: 64°   Visibility: 3mi
Dew Point: 63°   Wind: 6mph
Humidity: 96%   Direction: 20°NNE
Pressure: 29.99"   Gusts: NA
Location:  28.7094°N, 97.0351°W
Report Text: KVCT 210951Z AUTO 02005KT 3SM BR CLR 18/17 A2999 RMK AO2 SLP154 T01780172
Loading
Personal Weather Stations






























Interactive Weather Map
Tropical Storm Tracking
New forecast layout! Learn more

10-Day Weather Forecast

Advertisements
Track Severe Weather on mobile